sensor_id;sensor_type;location;lat;lon;timestamp;P1;durP1;ratioP1;P2;durP2;ratioP2
65879;SDS011;52661;51.364;6.054;2023-03-21T00:01:48;14.30;;;1.90;;
65879;SDS011;52661;51.364;6.054;2023-03-21T00:04:15;8.60;;;2.75;;
65879;SDS011;52661;51.364;6.054;2023-03-21T00:06:40;5.87;;;2.07;;
65879;SDS011;52661;51.364;6.054;2023-03-21T00:09:06;8.48;;;1.77;;
65879;SDS011;52661;51.364;6.054;2023-03-21T00:11:31;6.07;;;2.67;;
65879;SDS011;52661;51.364;6.054;2023-03-21T00:13:56;9.47;;;3.13;;
65879;SDS011;52661;51.364;6.054;2023-03-21T00:16:26;8.00;;;2.40;;
65879;SDS011;52661;51.364;6.054;2023-03-21T00:18:54;9.68;;;2.80;;
65879;SDS011;52661;51.364;6.054;2023-03-21T00:21:21;9.90;;;2.97;;
65879;SDS011;52661;51.364;6.054;2023-03-21T00:23:53;6.15;;;2.60;;
65879;SDS011;52661;51.364;6.054;2023-03-21T00:26:19;9.60;;;2.97;;
65879;SDS011;52661;51.364;6.054;2023-03-21T00:28:46;9.35;;;3.03;;
65879;SDS011;52661;51.364;6.054;2023-03-21T00:31:12;10.30;;;3.05;;
65879;SDS011;52661;51.364;6.054;2023-03-21T00:33:37;9.90;;;3.45;;
65879;SDS011;52661;51.364;6.054;2023-03-21T00:36:03;8.68;;;3.08;;
65879;SDS011;52661;51.364;6.054;2023-03-21T00:38:29;12.30;;;3.08;;
65879;SDS011;52661;51.364;6.054;2023-03-21T00:40:55;10.75;;;2.83;;
65879;SDS011;52661;51.364;6.054;2023-03-21T00:43:20;8.93;;;2.50;;
65879;SDS011;52661;51.364;6.054;2023-03-21T00:45:54;11.40;;;2.95;;
65879;SDS011;52661;51.364;6.054;2023-03-21T00:48:20;13.98;;;3.45;;
65879;SDS011;52661;51.364;6.054;2023-03-21T00:50:45;11.77;;;3.03;;
65879;SDS011;52661;51.364;6.054;2023-03-21T00:53:12;9.05;;;3.05;;
65879;SDS011;52661;51.364;6.054;2023-03-21T00:55:38;12.40;;;3.38;;
65879;SDS011;52661;51.364;6.054;2023-03-21T00:58:04;10.38;;;3.95;;
65879;SDS011;52661;51.364;6.054;2023-03-21T01:00:29;10.45;;;2.65;;
65879;SDS011;52661;51.364;6.054;2023-03-21T01:02:56;14.43;;;3.88;;
65879;SDS011;52661;51.364;6.054;2023-03-21T01:05:23;8.18;;;3.15;;
65879;SDS011;52661;51.364;6.054;2023-03-21T01:08:14;9.38;;;3.75;;
65879;SDS011;52661;51.364;6.054;2023-03-21T01:10:41;11.48;;;3.42;;
65879;SDS011;52661;51.364;6.054;2023-03-21T01:13:09;5.70;;;2.45;;
65879;SDS011;52661;51.364;6.054;2023-03-21T01:15:36;11.55;;;3.33;;
65879;SDS011;52661;51.364;6.054;2023-03-21T01:18:07;12.25;;;3.65;;
65879;SDS011;52661;51.364;6.054;2023-03-21T01:20:33;9.57;;;2.88;;
65879;SDS011;52661;51.364;6.054;2023-03-21T01:22:59;6.93;;;3.35;;
65879;SDS011;52661;51.364;6.054;2023-03-21T01:25:24;13.45;;;3.88;;
65879;SDS011;52661;51.364;6.054;2023-03-21T01:27:50;9.48;;;3.13;;
65879;SDS011;52661;51.364;6.054;2023-03-21T01:30:15;8.45;;;3.35;;
65879;SDS011;52661;51.364;6.054;2023-03-21T01:32:41;12.25;;;4.40;;
65879;SDS011;52661;51.364;6.054;2023-03-21T01:35:06;9.57;;;3.37;;
65879;SDS011;52661;51.364;6.054;2023-03-21T01:37:32;11.02;;;3.50;;
65879;SDS011;52661;51.364;6.054;2023-03-21T01:39:58;9.25;;;3.10;;
65879;SDS011;52661;51.364;6.054;2023-03-21T01:42:23;8.52;;;3.25;;
65879;SDS011;52661;51.364;6.054;2023-03-21T01:47:18;9.68;;;4.07;;
65879;SDS011;52661;51.364;6.054;2023-03-21T01:49:44;9.52;;;4.05;;
65879;SDS011;52661;51.364;6.054;2023-03-21T01:52:14;10.85;;;3.33;;
65879;SDS011;52661;51.364;6.054;2023-03-21T01:54:44;11.02;;;4.13;;
65879;SDS011;52661;51.364;6.054;2023-03-21T01:57:14;9.43;;;2.85;;
65879;SDS011;52661;51.364;6.054;2023-03-21T01:59:43;11.13;;;3.53;;
65879;SDS011;52661;51.364;6.054;2023-03-21T02:02:16;9.25;;;3.17;;
65879;SDS011;52661;51.364;6.054;2023-03-21T02:04:47;12.45;;;3.53;;
65879;SDS011;52661;51.364;6.054;2023-03-21T02:07:15;14.43;;;3.45;;
65879;SDS011;52661;51.364;6.054;2023-03-21T02:09:48;9.55;;;2.85;;
65879;SDS011;52661;51.364;6.054;2023-03-21T02:12:15;12.90;;;3.70;;
65879;SDS011;52661;51.364;6.054;2023-03-21T02:14:42;11.00;;;3.38;;
65879;SDS011;52661;51.364;6.054;2023-03-21T02:18:13;9.68;;;4.18;;
65879;SDS011;52661;51.364;6.054;2023-03-21T02:28:33;10.43;;;3.13;;
65879;SDS011;52661;51.364;6.054;2023-03-21T02:37:15;10.68;;;3.13;;
65879;SDS011;52661;51.364;6.054;2023-03-21T02:39:48;11.43;;;3.67;;
65879;SDS011;52661;51.364;6.054;2023-03-21T02:45:15;11.27;;;3.35;;
65879;SDS011;52661;51.364;6.054;2023-03-21T02:52:57;9.45;;;3.10;;
65879;SDS011;52661;51.364;6.054;2023-03-21T02:55:25;10.63;;;3.10;;
65879;SDS011;52661;51.364;6.054;2023-03-21T02:57:53;7.82;;;3.33;;
65879;SDS011;52661;51.364;6.054;2023-03-21T03:00:21;9.15;;;2.95;;
65879;SDS011;52661;51.364;6.054;2023-03-21T03:02:49;7.35;;;3.17;;
65879;SDS011;52661;51.364;6.054;2023-03-21T03:05:17;9.50;;;3.08;;
65879;SDS011;52661;51.364;6.054;2023-03-21T03:10:24;7.75;;;3.40;;
65879;SDS011;52661;51.364;6.054;2023-03-21T03:26:56;9.35;;;3.47;;
65879;SDS011;52661;51.364;6.054;2023-03-21T03:29:22;13.32;;;3.95;;
65879;SDS011;52661;51.364;6.054;2023-03-21T03:31:55;12.35;;;4.07;;
65879;SDS011;52661;51.364;6.054;2023-03-21T03:34:28;9.00;;;3.67;;
65879;SDS011;52661;51.364;6.054;2023-03-21T03:36:58;8.60;;;3.53;;
65879;SDS011;52661;51.364;6.054;2023-03-21T03:39:48;12.95;;;3.83;;
65879;SDS011;52661;51.364;6.054;2023-03-21T03:42:16;9.27;;;3.58;;
65879;SDS011;52661;51.364;6.054;2023-03-21T03:44:48;13.82;;;3.92;;
65879;SDS011;52661;51.364;6.054;2023-03-21T03:47:19;12.73;;;4.50;;
65879;SDS011;52661;51.364;6.054;2023-03-21T03:49:47;14.45;;;3.95;;
65879;SDS011;52661;51.364;6.054;2023-03-21T03:52:23;10.68;;;3.47;;
65879;SDS011;52661;51.364;6.054;2023-03-21T03:54:52;11.48;;;3.47;;
65879;SDS011;52661;51.364;6.054;2023-03-21T03:57:18;10.40;;;3.45;;
65879;SDS011;52661;51.364;6.054;2023-03-21T03:59:44;9.45;;;3.30;;
65879;SDS011;52661;51.364;6.054;2023-03-21T04:02:11;11.70;;;5.00;;
65879;SDS011;52661;51.364;6.054;2023-03-21T04:04:37;12.27;;;3.72;;
65879;SDS011;52661;51.364;6.054;2023-03-21T04:07:03;13.98;;;3.92;;
65879;SDS011;52661;51.364;6.054;2023-03-21T04:09:30;12.93;;;3.88;;
65879;SDS011;52661;51.364;6.054;2023-03-21T04:11:56;12.27;;;3.38;;
65879;SDS011;52661;51.364;6.054;2023-03-21T04:14:22;9.82;;;2.70;;
65879;SDS011;52661;51.364;6.054;2023-03-21T04:16:48;16.23;;;3.47;;
65879;SDS011;52661;51.364;6.054;2023-03-21T04:19:14;12.15;;;3.83;;
65879;SDS011;52661;51.364;6.054;2023-03-21T04:21:40;11.90;;;3.47;;
65879;SDS011;52661;51.364;6.054;2023-03-21T04:24:06;9.25;;;4.13;;
65879;SDS011;52661;51.364;6.054;2023-03-21T04:26:32;10.52;;;4.03;;
65879;SDS011;52661;51.364;6.054;2023-03-21T04:29:00;15.02;;;3.40;;
65879;SDS011;52661;51.364;6.054;2023-03-21T04:31:26;10.10;;;3.72;;
65879;SDS011;52661;51.364;6.054;2023-03-21T04:33:54;8.90;;;3.92;;
65879;SDS011;52661;51.364;6.054;2023-03-21T04:36:21;9.90;;;3.67;;
65879;SDS011;52661;51.364;6.054;2023-03-21T04:38:51;12.48;;;3.28;;
65879;SDS011;52661;51.364;6.054;2023-03-21T04:41:17;13.95;;;4.47;;
65879;SDS011;52661;51.364;6.054;2023-03-21T04:43:43;10.77;;;3.33;;
65879;SDS011;52661;51.364;6.054;2023-03-21T04:46:09;10.10;;;3.55;;
65879;SDS011;52661;51.364;6.054;2023-03-21T04:48:34;11.68;;;3.85;;
65879;SDS011;52661;51.364;6.054;2023-03-21T04:51:00;9.55;;;3.95;;
65879;SDS011;52661;51.364;6.054;2023-03-21T04:53:26;14.88;;;3.53;;
65879;SDS011;52661;51.364;6.054;2023-03-21T04:55:51;12.30;;;5.32;;
65879;SDS011;52661;51.364;6.054;2023-03-21T04:58:16;14.37;;;3.60;;
65879;SDS011;52661;51.364;6.054;2023-03-21T05:00:44;11.60;;;3.53;;
65879;SDS011;52661;51.364;6.054;2023-03-21T05:03:09;11.10;;;3.65;;
65879;SDS011;52661;51.364;6.054;2023-03-21T05:05:39;12.80;;;3.60;;
65879;SDS011;52661;51.364;6.054;2023-03-21T05:08:05;11.48;;;3.67;;
65879;SDS011;52661;51.364;6.054;2023-03-21T05:10:31;9.65;;;2.95;;
65879;SDS011;52661;51.364;6.054;2023-03-21T05:12:56;11.07;;;2.65;;
65879;SDS011;52661;51.364;6.054;2023-03-21T05:15:22;8.97;;;3.33;;
65879;SDS011;52661;51.364;6.054;2023-03-21T05:17:47;8.40;;;4.43;;
65879;SDS011;52661;51.364;6.054;2023-03-21T05:20:16;8.93;;;2.95;;
65879;SDS011;52661;51.364;6.054;2023-03-21T05:22:43;11.88;;;3.42;;
65879;SDS011;52661;51.364;6.054;2023-03-21T05:25:10;8.05;;;3.30;;
65879;SDS011;52661;51.364;6.054;2023-03-21T05:27:37;11.02;;;2.83;;
65879;SDS011;52661;51.364;6.054;2023-03-21T05:30:10;11.50;;;3.03;;
65879;SDS011;52661;51.364;6.054;2023-03-21T05:32:38;10.57;;;4.40;;
65879;SDS011;52661;51.364;6.054;2023-03-21T05:35:03;9.45;;;2.75;;
65879;SDS011;52661;51.364;6.054;2023-03-21T05:37:29;11.23;;;2.63;;
65879;SDS011;52661;51.364;6.054;2023-03-21T05:39:55;9.48;;;4.03;;
65879;SDS011;52661;51.364;6.054;2023-03-21T05:42:20;11.80;;;3.28;;
65879;SDS011;52661;51.364;6.054;2023-03-21T05:44:46;9.13;;;2.90;;
65879;SDS011;52661;51.364;6.054;2023-03-21T05:47:12;7.07;;;2.38;;
65879;SDS011;52661;51.364;6.054;2023-03-21T05:49:38;10.18;;;2.72;;
65879;SDS011;52661;51.364;6.054;2023-03-21T05:52:04;7.70;;;3.08;;
65879;SDS011;52661;51.364;6.054;2023-03-21T05:54:29;8.00;;;3.00;;
65879;SDS011;52661;51.364;6.054;2023-03-21T05:56:55;8.15;;;2.80;;
65879;SDS011;52661;51.364;6.054;2023-03-21T05:59:20;9.33;;;3.03;;
65879;SDS011;52661;51.364;6.054;2023-03-21T06:01:46;9.02;;;3.67;;
65879;SDS011;52661;51.364;6.054;2023-03-21T06:04:11;7.17;;;2.73;;
65879;SDS011;52661;51.364;6.054;2023-03-21T06:06:37;7.47;;;2.53;;
65879;SDS011;52661;51.364;6.054;2023-03-21T06:09:02;12.33;;;3.23;;
65879;SDS011;52661;51.364;6.054;2023-03-21T06:11:28;10.98;;;2.88;;
65879;SDS011;52661;51.364;6.054;2023-03-21T06:13:55;9.45;;;2.75;;
65879;SDS011;52661;51.364;6.054;2023-03-21T06:16:21;9.17;;;2.63;;
65879;SDS011;52661;51.364;6.054;2023-03-21T06:18:46;7.77;;;2.30;;
65879;SDS011;52661;51.364;6.054;2023-03-21T06:21:11;5.63;;;1.98;;
65879;SDS011;52661;51.364;6.054;2023-03-21T06:23:37;10.02;;;2.03;;
65879;SDS011;52661;51.364;6.054;2023-03-21T06:26:03;10.68;;;3.03;;
65879;SDS011;52661;51.364;6.054;2023-03-21T06:28:29;8.57;;;2.53;;
65879;SDS011;52661;51.364;6.054;2023-03-21T06:30:55;7.55;;;1.95;;
65879;SDS011;52661;51.364;6.054;2023-03-21T06:33:20;11.73;;;2.83;;
65879;SDS011;52661;51.364;6.054;2023-03-21T06:35:52;8.50;;;2.78;;
65879;SDS011;52661;51.364;6.054;2023-03-21T06:38:19;11.85;;;2.50;;
65879;SDS011;52661;51.364;6.054;2023-03-21T06:40:45;9.98;;;2.88;;
65879;SDS011;52661;51.364;6.054;2023-03-21T06:43:11;8.25;;;2.50;;
65879;SDS011;52661;51.364;6.054;2023-03-21T06:45:37;7.78;;;2.25;;
65879;SDS011;52661;51.364;6.054;2023-03-21T06:48:02;8.00;;;2.80;;
65879;SDS011;52661;51.364;6.054;2023-03-21T06:50:28;5.55;;;1.67;;
65879;SDS011;52661;51.364;6.054;2023-03-21T06:52:53;13.37;;;3.03;;
65879;SDS011;52661;51.364;6.054;2023-03-21T06:55:18;8.40;;;2.30;;
65879;SDS011;52661;51.364;6.054;2023-03-21T06:57:50;8.02;;;2.67;;
65879;SDS011;52661;51.364;6.054;2023-03-21T07:00:15;7.75;;;2.42;;
65879;SDS011;52661;51.364;6.054;2023-03-21T07:02:42;7.53;;;3.78;;
65879;SDS011;52661;51.364;6.054;2023-03-21T07:05:07;11.80;;;3.38;;
65879;SDS011;52661;51.364;6.054;2023-03-21T07:07:33;10.05;;;2.60;;
65879;SDS011;52661;51.364;6.054;2023-03-21T07:09:58;7.10;;;2.53;;
65879;SDS011;52661;51.364;6.054;2023-03-21T07:12:23;7.10;;;2.17;;
65879;SDS011;52661;51.364;6.054;2023-03-21T07:14:49;10.15;;;2.75;;
65879;SDS011;52661;51.364;6.054;2023-03-21T07:17:14;13.97;;;3.33;;
65879;SDS011;52661;51.364;6.054;2023-03-21T07:19:40;11.52;;;3.00;;
65879;SDS011;52661;51.364;6.054;2023-03-21T07:22:05;13.32;;;2.85;;
65879;SDS011;52661;51.364;6.054;2023-03-21T07:24:30;11.33;;;2.43;;
65879;SDS011;52661;51.364;6.054;2023-03-21T07:26:56;11.20;;;3.95;;
65879;SDS011;52661;51.364;6.054;2023-03-21T07:29:21;8.80;;;2.53;;
65879;SDS011;52661;51.364;6.054;2023-03-21T07:31:47;8.55;;;2.58;;
65879;SDS011;52661;51.364;6.054;2023-03-21T07:34:13;7.10;;;2.97;;
65879;SDS011;52661;51.364;6.054;2023-03-21T07:36:40;9.98;;;3.00;;
65879;SDS011;52661;51.364;6.054;2023-03-21T07:39:06;5.93;;;2.38;;
65879;SDS011;52661;51.364;6.054;2023-03-21T07:41:31;9.15;;;2.20;;
65879;SDS011;52661;51.364;6.054;2023-03-21T07:43:57;10.52;;;2.65;;
65879;SDS011;52661;51.364;6.054;2023-03-21T07:46:22;7.13;;;3.33;;
65879;SDS011;52661;51.364;6.054;2023-03-21T07:48:48;6.90;;;2.23;;
65879;SDS011;52661;51.364;6.054;2023-03-21T07:51:13;8.77;;;2.03;;
65879;SDS011;52661;51.364;6.054;2023-03-21T07:53:38;4.87;;;1.90;;
65879;SDS011;52661;51.364;6.054;2023-03-21T07:56:05;7.32;;;1.75;;
65879;SDS011;52661;51.364;6.054;2023-03-21T07:58:31;6.50;;;1.88;;
65879;SDS011;52661;51.364;6.054;2023-03-21T08:00:58;8.23;;;2.10;;
65879;SDS011;52661;51.364;6.054;2023-03-21T08:03:24;7.13;;;2.00;;
65879;SDS011;52661;51.364;6.054;2023-03-21T08:05:53;6.18;;;2.50;;
65879;SDS011;52661;51.364;6.054;2023-03-21T08:08:18;10.60;;;2.05;;
65879;SDS011;52661;51.364;6.054;2023-03-21T08:10:43;8.35;;;2.70;;
65879;SDS011;52661;51.364;6.054;2023-03-21T08:13:09;10.20;;;3.17;;
65879;SDS011;52661;51.364;6.054;2023-03-21T08:15:34;8.73;;;1.70;;
65879;SDS011;52661;51.364;6.054;2023-03-21T08:18:01;6.05;;;1.70;;
65879;SDS011;52661;51.364;6.054;2023-03-21T08:20:27;5.45;;;2.45;;
65879;SDS011;52661;51.364;6.054;2023-03-21T08:22:52;5.80;;;2.85;;
65879;SDS011;52661;51.364;6.054;2023-03-21T08:25:18;6.22;;;1.88;;
65879;SDS011;52661;51.364;6.054;2023-03-21T08:27:46;5.75;;;1.88;;
65879;SDS011;52661;51.364;6.054;2023-03-21T08:30:14;9.23;;;1.63;;
65879;SDS011;52661;51.364;6.054;2023-03-21T08:32:41;8.10;;;1.92;;
65879;SDS011;52661;51.364;6.054;2023-03-21T08:35:07;8.20;;;1.50;;
65879;SDS011;52661;51.364;6.054;2023-03-21T08:40:04;4.68;;;1.83;;
65879;SDS011;52661;51.364;6.054;2023-03-21T08:42:35;5.25;;;1.95;;
65879;SDS011;52661;51.364;6.054;2023-03-21T08:45:01;4.13;;;1.52;;
65879;SDS011;52661;51.364;6.054;2023-03-21T08:47:28;5.20;;;1.63;;
65879;SDS011;52661;51.364;6.054;2023-03-21T08:49:54;6.13;;;2.10;;
65879;SDS011;52661;51.364;6.054;2023-03-21T08:52:20;6.50;;;1.85;;
65879;SDS011;52661;51.364;6.054;2023-03-21T08:54:45;7.27;;;2.40;;
65879;SDS011;52661;51.364;6.054;2023-03-21T08:57:12;6.82;;;1.95;;
65879;SDS011;52661;51.364;6.054;2023-03-21T08:59:38;5.72;;;2.30;;
65879;SDS011;52661;51.364;6.054;2023-03-21T09:02:04;4.85;;;1.73;;
65879;SDS011;52661;51.364;6.054;2023-03-21T09:04:29;6.77;;;2.40;;
65879;SDS011;52661;51.364;6.054;2023-03-21T09:06:55;8.95;;;1.85;;
65879;SDS011;52661;51.364;6.054;2023-03-21T09:09:21;7.63;;;1.95;;
65879;SDS011;52661;51.364;6.054;2023-03-21T09:11:46;6.60;;;2.40;;
65879;SDS011;52661;51.364;6.054;2023-03-21T09:14:11;3.70;;;1.97;;
65879;SDS011;52661;51.364;6.054;2023-03-21T09:16:36;10.67;;;2.10;;
65879;SDS011;52661;51.364;6.054;2023-03-21T09:19:02;7.53;;;2.42;;
65879;SDS011;52661;51.364;6.054;2023-03-21T09:21:28;10.30;;;2.20;;
65879;SDS011;52661;51.364;6.054;2023-03-21T09:23:54;8.60;;;1.58;;
65879;SDS011;52661;51.364;6.054;2023-03-21T09:26:22;7.63;;;2.13;;
65879;SDS011;52661;51.364;6.054;2023-03-21T09:28:49;7.82;;;2.15;;
65879;SDS011;52661;51.364;6.054;2023-03-21T09:31:15;9.25;;;2.22;;
65879;SDS011;52661;51.364;6.054;2023-03-21T09:33:47;7.97;;;2.28;;
65879;SDS011;52661;51.364;6.054;2023-03-21T09:36:13;5.82;;;1.83;;
65879;SDS011;52661;51.364;6.054;2023-03-21T09:38:39;4.88;;;1.55;;
65879;SDS011;52661;51.364;6.054;2023-03-21T09:49:33;6.47;;;3.00;;
65879;SDS011;52661;51.364;6.054;2023-03-21T09:52:05;10.23;;;3.25;;
65879;SDS011;52661;51.364;6.054;2023-03-21T09:54:39;5.40;;;1.73;;
65879;SDS011;52661;51.364;6.054;2023-03-21T09:57:14;5.63;;;1.88;;
65879;SDS011;52661;51.364;6.054;2023-03-21T09:59:43;7.13;;;2.33;;
65879;SDS011;52661;51.364;6.054;2023-03-21T10:02:33;8.52;;;2.58;;
65879;SDS011;52661;51.364;6.054;2023-03-21T10:05:02;8.13;;;2.60;;
65879;SDS011;52661;51.364;6.054;2023-03-21T10:07:37;10.50;;;3.60;;
65879;SDS011;52661;51.364;6.054;2023-03-21T10:10:16;5.07;;;2.08;;
65879;SDS011;52661;51.364;6.054;2023-03-21T10:12:46;6.65;;;2.40;;
65879;SDS011;52661;51.364;6.054;2023-03-21T10:15:15;5.95;;;2.30;;
65879;SDS011;52661;51.364;6.054;2023-03-21T10:17:45;4.55;;;1.88;;
65879;SDS011;52661;51.364;6.054;2023-03-21T10:20:25;3.35;;;1.35;;
65879;SDS011;52661;51.364;6.054;2023-03-21T10:23:11;3.10;;;1.10;;
65879;SDS011;52661;51.364;6.054;2023-03-21T10:25:39;5.15;;;1.63;;
65879;SDS011;52661;51.364;6.054;2023-03-21T10:28:10;6.40;;;2.00;;
65879;SDS011;52661;51.364;6.054;2023-03-21T10:31:00;5.20;;;1.33;;
65879;SDS011;52661;51.364;6.054;2023-03-21T10:33:38;4.85;;;1.30;;
65879;SDS011;52661;51.364;6.054;2023-03-21T10:36:08;3.88;;;1.20;;
65879;SDS011;52661;51.364;6.054;2023-03-21T10:38:37;4.75;;;1.58;;
65879;SDS011;52661;51.364;6.054;2023-03-21T10:41:09;6.18;;;1.75;;
65879;SDS011;52661;51.364;6.054;2023-03-21T10:43:36;2.35;;;1.10;;
65879;SDS011;52661;51.364;6.054;2023-03-21T10:48:38;7.80;;;1.27;;
65879;SDS011;52661;51.364;6.054;2023-03-21T10:51:11;5.20;;;1.38;;
65879;SDS011;52661;51.364;6.054;2023-03-21T10:53:44;7.00;;;1.58;;
65879;SDS011;52661;51.364;6.054;2023-03-21T10:56:14;5.15;;;3.05;;
65879;SDS011;52661;51.364;6.054;2023-03-21T10:58:45;6.18;;;2.33;;
65879;SDS011;52661;51.364;6.054;2023-03-21T11:01:20;4.95;;;1.80;;
65879;SDS011;52661;51.364;6.054;2023-03-21T11:03:58;7.10;;;1.10;;
65879;SDS011;52661;51.364;6.054;2023-03-21T11:06:26;6.97;;;1.52;;
65879;SDS011;52661;51.364;6.054;2023-03-21T11:12:18;7.40;;;1.75;;
65879;SDS011;52661;51.364;6.054;2023-03-21T11:14:25;5.90;;;1.63;;
65879;SDS011;52661;51.364;6.054;2023-03-21T11:16:55;7.63;;;1.60;;
65879;SDS011;52661;51.364;6.054;2023-03-21T11:19:31;8.55;;;2.72;;
65879;SDS011;52661;51.364;6.054;2023-03-21T11:22:04;5.60;;;1.90;;
65879;SDS011;52661;51.364;6.054;2023-03-21T11:24:31;5.90;;;1.17;;
65879;SDS011;52661;51.364;6.054;2023-03-21T11:26:57;7.45;;;1.63;;
65879;SDS011;52661;51.364;6.054;2023-03-21T11:31:52;5.22;;;1.33;;
65879;SDS011;52661;51.364;6.054;2023-03-21T11:34:26;5.30;;;1.58;;
65879;SDS011;52661;51.364;6.054;2023-03-21T11:36:57;5.70;;;1.75;;
65879;SDS011;52661;51.364;6.054;2023-03-21T11:39:35;7.22;;;1.48;;
65879;SDS011;52661;51.364;6.054;2023-03-21T11:42:04;8.50;;;1.60;;
65879;SDS011;52661;51.364;6.054;2023-03-21T11:44:34;8.13;;;1.73;;
65879;SDS011;52661;51.364;6.054;2023-03-21T11:47:09;6.70;;;1.55;;
65879;SDS011;52661;51.364;6.054;2023-03-21T11:49:35;5.07;;;2.67;;
65879;SDS011;52661;51.364;6.054;2023-03-21T11:52:15;5.18;;;1.98;;
65879;SDS011;52661;51.364;6.054;2023-03-21T12:00:20;4.43;;;1.50;;
65879;SDS011;52661;51.364;6.054;2023-03-21T12:03:26;5.18;;;1.05;;
65879;SDS011;52661;51.364;6.054;2023-03-21T12:05:53;4.38;;;0.90;;
65879;SDS011;52661;51.364;6.054;2023-03-21T12:11:22;8.00;;;1.10;;
65879;SDS011;52661;51.364;6.054;2023-03-21T12:14:04;3.63;;;1.10;;
65879;SDS011;52661;51.364;6.054;2023-03-21T12:19:17;4.38;;;0.98;;
65879;SDS011;52661;51.364;6.054;2023-03-21T12:24:44;3.15;;;0.88;;
65879;SDS011;52661;51.364;6.054;2023-03-21T12:38:52;2.97;;;0.77;;
65879;SDS011;52661;51.364;6.054;2023-03-21T12:41:36;3.85;;;0.90;;
65879;SDS011;52661;51.364;6.054;2023-03-21T12:44:14;6.22;;;1.23;;
65879;SDS011;52661;51.364;6.054;2023-03-21T12:46:54;2.28;;;1.27;;
65879;SDS011;52661;51.364;6.054;2023-03-21T12:49:31;2.50;;;0.60;;
65879;SDS011;52661;51.364;6.054;2023-03-21T12:52:03;4.20;;;1.08;;
65879;SDS011;52661;51.364;6.054;2023-03-21T12:54:36;3.78;;;1.02;;
65879;SDS011;52661;51.364;6.054;2023-03-21T12:59:58;1.80;;;0.70;;
65879;SDS011;52661;51.364;6.054;2023-03-21T13:02:41;4.10;;;1.13;;
65879;SDS011;52661;51.364;6.054;2023-03-21T13:05:19;1.70;;;0.50;;
65879;SDS011;52661;51.364;6.054;2023-03-21T13:07:59;3.72;;;1.48;;
65879;SDS011;52661;51.364;6.054;2023-03-21T13:10:38;2.17;;;0.68;;
65879;SDS011;52661;51.364;6.054;2023-03-21T13:13:20;3.10;;;1.23;;
65879;SDS011;52661;51.364;6.054;2023-03-21T13:18:30;3.90;;;0.90;;
65879;SDS011;52661;51.364;6.054;2023-03-21T13:21:19;2.50;;;0.88;;
65879;SDS011;52661;51.364;6.054;2023-03-21T13:24:16;4.70;;;1.25;;
65879;SDS011;52661;51.364;6.054;2023-03-21T13:26:44;4.65;;;1.05;;
65879;SDS011;52661;51.364;6.054;2023-03-21T13:29:27;6.18;;;1.08;;
65879;SDS011;52661;51.364;6.054;2023-03-21T13:32:06;3.90;;;0.90;;
65879;SDS011;52661;51.364;6.054;2023-03-21T13:34:58;4.47;;;1.10;;
65879;SDS011;52661;51.364;6.054;2023-03-21T13:37:38;3.47;;;1.52;;
65879;SDS011;52661;51.364;6.054;2023-03-21T13:40:11;3.35;;;1.15;;
65879;SDS011;52661;51.364;6.054;2023-03-21T13:42:52;2.97;;;0.63;;
65879;SDS011;52661;51.364;6.054;2023-03-21T13:45:31;4.05;;;1.30;;
65879;SDS011;52661;51.364;6.054;2023-03-21T13:48:26;2.00;;;0.55;;
65879;SDS011;52661;51.364;6.054;2023-03-21T13:51:05;3.80;;;1.20;;
65879;SDS011;52661;51.364;6.054;2023-03-21T13:53:37;2.97;;;1.02;;
65879;SDS011;52661;51.364;6.054;2023-03-21T13:58:48;2.85;;;0.60;;
65879;SDS011;52661;51.364;6.054;2023-03-21T14:03:44;2.30;;;0.85;;
65879;SDS011;52661;51.364;6.054;2023-03-21T14:06:13;4.22;;;0.98;;
65879;SDS011;52661;51.364;6.054;2023-03-21T14:11:11;3.97;;;1.00;;
65879;SDS011;52661;51.364;6.054;2023-03-21T14:13:40;4.38;;;1.08;;
65879;SDS011;52661;51.364;6.054;2023-03-21T14:16:11;7.07;;;1.90;;
65879;SDS011;52661;51.364;6.054;2023-03-21T14:21:16;3.22;;;1.10;;
65879;SDS011;52661;51.364;6.054;2023-03-21T14:23:44;4.45;;;1.30;;
65879;SDS011;52661;51.364;6.054;2023-03-21T14:26:10;5.70;;;2.03;;
65879;SDS011;52661;51.364;6.054;2023-03-21T14:28:37;3.03;;;1.25;;
65879;SDS011;52661;51.364;6.054;2023-03-21T14:31:11;5.25;;;1.30;;
65879;SDS011;52661;51.364;6.054;2023-03-21T14:33:41;2.78;;;1.25;;
65879;SDS011;52661;51.364;6.054;2023-03-21T14:36:15;4.57;;;1.10;;
65879;SDS011;52661;51.364;6.054;2023-03-21T14:38:52;4.43;;;1.48;;
65879;SDS011;52661;51.364;6.054;2023-03-21T14:41:21;3.08;;;1.52;;
65879;SDS011;52661;51.364;6.054;2023-03-21T14:46:46;4.93;;;1.20;;
65879;SDS011;52661;51.364;6.054;2023-03-21T14:49:19;2.95;;;1.15;;
65879;SDS011;52661;51.364;6.054;2023-03-21T14:52:02;3.38;;;0.93;;
65879;SDS011;52661;51.364;6.054;2023-03-21T14:54:31;3.08;;;1.30;;
65879;SDS011;52661;51.364;6.054;2023-03-21T14:56:59;4.75;;;1.13;;
65879;SDS011;52661;51.364;6.054;2023-03-21T14:59:29;3.97;;;1.00;;
65879;SDS011;52661;51.364;6.054;2023-03-21T15:02:04;11.55;;;2.20;;
65879;SDS011;52661;51.364;6.054;2023-03-21T15:04:39;4.22;;;1.20;;
65879;SDS011;52661;51.364;6.054;2023-03-21T15:07:05;4.80;;;1.02;;
65879;SDS011;52661;51.364;6.054;2023-03-21T15:09:33;6.57;;;1.67;;
65879;SDS011;52661;51.364;6.054;2023-03-21T15:11:59;4.22;;;1.52;;
65879;SDS011;52661;51.364;6.054;2023-03-21T15:14:32;3.50;;;0.95;;
65879;SDS011;52661;51.364;6.054;2023-03-21T15:16:59;4.80;;;1.20;;
65879;SDS011;52661;51.364;6.054;2023-03-21T15:19:29;4.15;;;1.38;;
65879;SDS011;52661;51.364;6.054;2023-03-21T15:22:08;4.70;;;1.60;;
65879;SDS011;52661;51.364;6.054;2023-03-21T15:25:02;4.65;;;0.90;;
65879;SDS011;52661;51.364;6.054;2023-03-21T15:27:33;5.25;;;1.60;;
65879;SDS011;52661;51.364;6.054;2023-03-21T15:30:02;3.67;;;1.52;;
65879;SDS011;52661;51.364;6.054;2023-03-21T15:32:28;3.08;;;0.95;;
65879;SDS011;52661;51.364;6.054;2023-03-21T15:34:54;5.90;;;1.65;;
65879;SDS011;52661;51.364;6.054;2023-03-21T15:37:33;4.38;;;1.25;;
65879;SDS011;52661;51.364;6.054;2023-03-21T15:42:43;4.40;;;1.23;;
65879;SDS011;52661;51.364;6.054;2023-03-21T15:45:26;3.80;;;1.48;;
65879;SDS011;52661;51.364;6.054;2023-03-21T15:48:06;5.00;;;1.20;;
65879;SDS011;52661;51.364;6.054;2023-03-21T15:53:02;6.25;;;1.60;;
65879;SDS011;52661;51.364;6.054;2023-03-21T15:56:04;3.72;;;1.38;;
65879;SDS011;52661;51.364;6.054;2023-03-21T15:58:27;2.90;;;1.23;;
65879;SDS011;52661;51.364;6.054;2023-03-21T16:01:00;3.08;;;0.95;;
65879;SDS011;52661;51.364;6.054;2023-03-21T16:03:30;6.80;;;1.33;;
65879;SDS011;52661;51.364;6.054;2023-03-21T16:08:45;4.63;;;1.85;;
65879;SDS011;52661;51.364;6.054;2023-03-21T16:11:26;5.38;;;1.30;;
65879;SDS011;52661;51.364;6.054;2023-03-21T16:13:54;7.25;;;1.80;;
65879;SDS011;52661;51.364;6.054;2023-03-21T16:16:21;7.35;;;1.40;;
65879;SDS011;52661;51.364;6.054;2023-03-21T16:18:52;5.85;;;2.38;;
65879;SDS011;52661;51.364;6.054;2023-03-21T16:21:19;5.95;;;1.83;;
65879;SDS011;52661;51.364;6.054;2023-03-21T16:23:47;5.05;;;1.27;;
65879;SDS011;52661;51.364;6.054;2023-03-21T16:26:13;6.25;;;2.00;;
65879;SDS011;52661;51.364;6.054;2023-03-21T16:28:44;6.45;;;1.63;;
65879;SDS011;52661;51.364;6.054;2023-03-21T16:31:11;6.40;;;2.25;;
65879;SDS011;52661;51.364;6.054;2023-03-21T16:33:38;6.50;;;1.65;;
65879;SDS011;52661;51.364;6.054;2023-03-21T16:36:03;5.37;;;1.20;;
65879;SDS011;52661;51.364;6.054;2023-03-21T16:38:30;5.95;;;1.88;;
65879;SDS011;52661;51.364;6.054;2023-03-21T16:40:56;7.27;;;1.87;;
65879;SDS011;52661;51.364;6.054;2023-03-21T16:43:21;7.87;;;1.97;;
65879;SDS011;52661;51.364;6.054;2023-03-21T16:45:46;6.25;;;2.70;;
65879;SDS011;52661;51.364;6.054;2023-03-21T16:48:12;3.70;;;1.40;;
65879;SDS011;52661;51.364;6.054;2023-03-21T16:50:40;7.38;;;1.55;;